sensor_id;sensor_type;location;lat;lon;timestamp;pressure;altitude;pressure_sealevel;temperature;humidity
54600;BME280;40500;51.084;16.958;2022-08-19T00:02:05;99559.70;;;25.41;55.50
54600;BME280;40500;51.084;16.958;2022-08-19T00:04:35;99558.56;;;25.40;55.52
54600;BME280;40500;51.084;16.958;2022-08-19T00:07:05;99557.17;;;25.39;55.50
54600;BME280;40500;51.084;16.958;2022-08-19T00:09:35;99552.64;;;25.38;55.57
54600;BME280;40500;51.084;16.958;2022-08-19T00:12:04;99540.64;;;25.36;55.56
54600;BME280;40500;51.084;16.958;2022-08-19T00:14:35;99531.19;;;25.33;55.60
54600;BME280;40500;51.084;16.958;2022-08-19T00:17:06;99522.45;;;25.29;55.61
54600;BME280;40500;51.084;16.958;2022-08-19T00:19:38;99514.73;;;25.23;55.81
54600;BME280;40500;51.084;16.958;2022-08-19T00:22:08;99515.16;;;25.18;55.96
54600;BME280;40500;51.084;16.958;2022-08-19T00:24:37;99518.33;;;25.15;55.94
54600;BME280;40500;51.084;16.958;2022-08-19T00:27:17;99509.80;;;25.12;55.98
54600;BME280;40500;51.084;16.958;2022-08-19T00:29:55;99507.77;;;25.09;56.02
54600;BME280;40500;51.084;16.958;2022-08-19T00:32:27;99502.05;;;25.03;56.18
54600;BME280;40500;51.084;16.958;2022-08-19T00:34:57;99504.00;;;24.95;56.37
54600;BME280;40500;51.084;16.958;2022-08-19T00:37:26;99505.51;;;24.90;56.36
54600;BME280;40500;51.084;16.958;2022-08-19T00:39:55;99509.70;;;24.92;56.37
54600;BME280;40500;51.084;16.958;2022-08-19T00:42:26;99514.30;;;24.92;56.35
54600;BME280;40500;51.084;16.958;2022-08-19T00:44:58;99525.20;;;24.91;56.37
54600;BME280;40500;51.084;16.958;2022-08-19T00:47:29;99540.73;;;24.89;56.45
54600;BME280;40500;51.084;16.958;2022-08-19T00:49:58;99538.73;;;24.87;56.47
54600;BME280;40500;51.084;16.958;2022-08-19T00:52:31;99533.04;;;24.85;56.65
54600;BME280;40500;51.084;16.958;2022-08-19T00:55:03;99513.09;;;24.83;56.81
54600;BME280;40500;51.084;16.958;2022-08-19T00:57:35;99499.06;;;24.78;57.23
54600;BME280;40500;51.084;16.958;2022-08-19T01:00:11;99478.95;;;24.71;57.68
54600;BME280;40500;51.084;16.958;2022-08-19T01:02:41;99472.50;;;24.63;57.91
54600;BME280;40500;51.084;16.958;2022-08-19T01:05:17;99490.27;;;24.60;58.19
54600;BME280;40500;51.084;16.958;2022-08-19T01:07:48;99498.16;;;24.58;58.18
54600;BME280;40500;51.084;16.958;2022-08-19T01:10:22;99495.16;;;24.58;58.26
54600;BME280;40500;51.084;16.958;2022-08-19T01:12:52;99496.29;;;24.57;58.36
54600;BME280;40500;51.084;16.958;2022-08-19T01:15:25;99491.76;;;24.56;58.46
54600;BME280;40500;51.084;16.958;2022-08-19T01:17:55;99478.05;;;24.55;58.58
54600;BME280;40500;51.084;16.958;2022-08-19T01:20:25;99473.81;;;24.54;58.61
54600;BME280;40500;51.084;16.958;2022-08-19T01:22:57;99475.54;;;24.55;58.73
54600;BME280;40500;51.084;16.958;2022-08-19T01:25:29;99462.31;;;24.55;58.76
54600;BME280;40500;51.084;16.958;2022-08-19T01:28:00;99460.52;;;24.51;58.81
54600;BME280;40500;51.084;16.958;2022-08-19T01:30:38;99460.19;;;24.46;58.96
54600;BME280;40500;51.084;16.958;2022-08-19T01:33:18;99457.88;;;24.44;59.02
54600;BME280;40500;51.084;16.958;2022-08-19T01:35:52;99454.38;;;24.39;59.13
54600;BME280;40500;51.084;16.958;2022-08-19T01:38:24;99455.92;;;24.36;59.13
54600;BME280;40500;51.084;16.958;2022-08-19T01:40:55;99459.00;;;24.35;59.13
54600;BME280;40500;51.084;16.958;2022-08-19T01:43:24;99460.03;;;24.34;59.25
54600;BME280;40500;51.084;16.958;2022-08-19T01:45:55;99460.18;;;24.32;59.33
54600;BME280;40500;51.084;16.958;2022-08-19T01:48:23;99461.67;;;24.31;59.27
54600;BME280;40500;51.084;16.958;2022-08-19T01:50:50;99460.27;;;24.29;59.30
54600;BME280;40500;51.084;16.958;2022-08-19T01:53:19;99449.39;;;24.24;59.29
54600;BME280;40500;51.084;16.958;2022-08-19T01:55:53;99448.95;;;24.21;59.29
54600;BME280;40500;51.084;16.958;2022-08-19T01:58:27;99443.23;;;24.19;59.27
54600;BME280;40500;51.084;16.958;2022-08-19T02:00:57;99441.11;;;24.15;59.63
54600;BME280;40500;51.084;16.958;2022-08-19T02:03:29;99449.89;;;24.11;59.54
54600;BME280;40500;51.084;16.958;2022-08-19T02:06:00;99456.65;;;24.09;59.62
54600;BME280;40500;51.084;16.958;2022-08-19T02:08:35;99460.13;;;24.06;59.68
54600;BME280;40500;51.084;16.958;2022-08-19T02:11:05;99458.86;;;24.02;59.72
54600;BME280;40500;51.084;16.958;2022-08-19T02:13:37;99456.25;;;23.99;59.97
54600;BME280;40500;51.084;16.958;2022-08-19T02:16:05;99450.31;;;23.97;59.86
54600;BME280;40500;51.084;16.958;2022-08-19T02:18:35;99434.29;;;23.95;60.01
54600;BME280;40500;51.084;16.958;2022-08-19T02:21:05;99425.27;;;23.93;60.11
54600;BME280;40500;51.084;16.958;2022-08-19T02:23:33;99419.36;;;23.92;60.10
54600;BME280;40500;51.084;16.958;2022-08-19T02:26:01;99426.92;;;23.89;60.06
54600;BME280;40500;51.084;16.958;2022-08-19T02:28:32;99430.17;;;23.84;60.07
54600;BME280;40500;51.084;16.958;2022-08-19T02:31:07;99429.58;;;23.79;60.29
54600;BME280;40500;51.084;16.958;2022-08-19T02:33:36;99426.83;;;23.76;60.36
54600;BME280;40500;51.084;16.958;2022-08-19T02:36:07;99417.82;;;23.72;60.46
54600;BME280;40500;51.084;16.958;2022-08-19T02:38:37;99408.38;;;23.69;60.44
54600;BME280;40500;51.084;16.958;2022-08-19T02:41:11;99413.05;;;23.65;60.52
54600;BME280;40500;51.084;16.958;2022-08-19T02:43:40;99420.58;;;23.62;60.68
54600;BME280;40500;51.084;16.958;2022-08-19T02:46:30;99424.69;;;23.60;60.77
54600;BME280;40500;51.084;16.958;2022-08-19T02:49:03;99427.11;;;23.57;60.81
54600;BME280;40500;51.084;16.958;2022-08-19T02:51:35;99431.63;;;23.54;60.80
54600;BME280;40500;51.084;16.958;2022-08-19T02:54:07;99433.89;;;23.51;60.97
54600;BME280;40500;51.084;16.958;2022-08-19T02:56:38;99420.04;;;23.46;61.12
54600;BME280;40500;51.084;16.958;2022-08-19T02:59:06;99419.26;;;23.42;61.20
54600;BME280;40500;51.084;16.958;2022-08-19T03:01:38;99420.63;;;23.41;61.22
54600;BME280;40500;51.084;16.958;2022-08-19T03:04:09;99426.37;;;23.37;61.30
54600;BME280;40500;51.084;16.958;2022-08-19T03:06:40;99425.71;;;23.31;61.48
54600;BME280;40500;51.084;16.958;2022-08-19T03:09:10;99430.36;;;23.27;61.76
54600;BME280;40500;51.084;16.958;2022-08-19T03:11:40;99440.20;;;23.25;61.71
54600;BME280;40500;51.084;16.958;2022-08-19T03:14:11;99449.30;;;23.21;61.72
54600;BME280;40500;51.084;16.958;2022-08-19T03:16:43;99458.89;;;23.17;61.83
54600;BME280;40500;51.084;16.958;2022-08-19T03:19:11;99458.69;;;23.13;62.17
54600;BME280;40500;51.084;16.958;2022-08-19T03:21:44;99465.58;;;23.10;62.05
54600;BME280;40500;51.084;16.958;2022-08-19T03:24:13;99465.02;;;23.06;62.25
54600;BME280;40500;51.084;16.958;2022-08-19T03:26:43;99465.53;;;23.02;62.27
54600;BME280;40500;51.084;16.958;2022-08-19T03:29:16;99469.84;;;22.99;62.58
54600;BME280;40500;51.084;16.958;2022-08-19T03:31:59;99465.16;;;22.97;62.75
54600;BME280;40500;51.084;16.958;2022-08-19T03:34:30;99458.86;;;22.96;62.79
54600;BME280;40500;51.084;16.958;2022-08-19T03:37:02;99460.67;;;22.93;62.99
54600;BME280;40500;51.084;16.958;2022-08-19T03:39:32;99461.78;;;22.91;62.92
54600;BME280;40500;51.084;16.958;2022-08-19T03:42:03;99462.56;;;22.87;63.00
54600;BME280;40500;51.084;16.958;2022-08-19T03:44:52;99463.63;;;22.85;63.11
54600;BME280;40500;51.084;16.958;2022-08-19T03:47:22;99452.91;;;22.81;63.23
54600;BME280;40500;51.084;16.958;2022-08-19T03:49:50;99451.04;;;22.76;63.35
54600;BME280;40500;51.084;16.958;2022-08-19T03:52:19;99451.91;;;22.74;63.59
54600;BME280;40500;51.084;16.958;2022-08-19T03:54:48;99454.20;;;22.72;63.54
54600;BME280;40500;51.084;16.958;2022-08-19T03:57:19;99470.14;;;22.69;63.37
54600;BME280;40500;51.084;16.958;2022-08-19T03:59:59;99475.79;;;22.66;63.69
54600;BME280;40500;51.084;16.958;2022-08-19T04:02:42;99480.84;;;22.62;63.78
54600;BME280;40500;51.084;16.958;2022-08-19T04:05:28;99482.09;;;22.60;64.01
54600;BME280;40500;51.084;16.958;2022-08-19T04:07:57;99485.36;;;22.58;64.29
54600;BME280;40500;51.084;16.958;2022-08-19T04:10:26;99487.58;;;22.55;64.32
54600;BME280;40500;51.084;16.958;2022-08-19T04:12:55;99484.61;;;22.51;64.52
54600;BME280;40500;51.084;16.958;2022-08-19T04:15:28;99474.02;;;22.49;64.62
54600;BME280;40500;51.084;16.958;2022-08-19T04:18:00;99476.13;;;22.50;64.63
54600;BME280;40500;51.084;16.958;2022-08-19T04:20:30;99483.30;;;22.52;64.65
54600;BME280;40500;51.084;16.958;2022-08-19T04:22:59;99486.77;;;22.53;64.76
54600;BME280;40500;51.084;16.958;2022-08-19T04:25:36;99484.70;;;22.55;64.86
54600;BME280;40500;51.084;16.958;2022-08-19T04:28:05;99488.94;;;22.55;64.74
54600;BME280;40500;51.084;16.958;2022-08-19T04:30:41;99484.84;;;22.55;64.87
54600;BME280;40500;51.084;16.958;2022-08-19T04:33:10;99483.99;;;22.54;65.03
54600;BME280;40500;51.084;16.958;2022-08-19T04:35:40;99488.45;;;22.55;64.90
54600;BME280;40500;51.084;16.958;2022-08-19T04:38:10;99486.54;;;22.56;65.14
54600;BME280;40500;51.084;16.958;2022-08-19T04:40:41;99488.02;;;22.58;65.34
54600;BME280;40500;51.084;16.958;2022-08-19T04:43:28;99479.21;;;22.67;65.14
54600;BME280;40500;51.084;16.958;2022-08-19T04:45:57;99477.33;;;22.71;65.42
54600;BME280;40500;51.084;16.958;2022-08-19T04:48:28;99476.21;;;22.69;65.33
54600;BME280;40500;51.084;16.958;2022-08-19T04:51:06;99479.50;;;22.70;65.40
54600;BME280;40500;51.084;16.958;2022-08-19T04:53:37;99476.14;;;22.72;65.62
54600;BME280;40500;51.084;16.958;2022-08-19T04:56:10;99472.67;;;22.73;65.63
54600;BME280;40500;51.084;16.958;2022-08-19T04:58:39;99470.64;;;22.74;65.65
54600;BME280;40500;51.084;16.958;2022-08-19T05:01:13;99466.49;;;22.77;65.56
54600;BME280;40500;51.084;16.958;2022-08-19T05:03:43;99461.79;;;22.77;65.89
54600;BME280;40500;51.084;16.958;2022-08-19T05:06:15;99459.87;;;22.79;65.77
54600;BME280;40500;51.084;16.958;2022-08-19T05:08:46;99460.56;;;22.81;65.61
54600;BME280;40500;51.084;16.958;2022-08-19T05:11:24;99463.58;;;22.84;65.82
54600;BME280;40500;51.084;16.958;2022-08-19T05:13:53;99461.02;;;22.84;66.03
54600;BME280;40500;51.084;16.958;2022-08-19T05:16:24;99465.43;;;22.85;65.93
54600;BME280;40500;51.084;16.958;2022-08-19T05:18:54;99476.38;;;22.84;66.05
54600;BME280;40500;51.084;16.958;2022-08-19T05:21:42;99478.08;;;22.85;66.14
54600;BME280;40500;51.084;16.958;2022-08-19T05:24:34;99470.89;;;22.93;66.11
54600;BME280;40500;51.084;16.958;2022-08-19T05:27:18;99466.60;;;22.97;66.20
54600;BME280;40500;51.084;16.958;2022-08-19T05:29:47;99461.70;;;23.03;66.21
54600;BME280;40500;51.084;16.958;2022-08-19T05:32:17;99471.05;;;23.08;66.11
54600;BME280;40500;51.084;16.958;2022-08-19T05:34:45;99476.55;;;23.13;66.13
54600;BME280;40500;51.084;16.958;2022-08-19T05:37:17;99483.70;;;23.17;66.15
54600;BME280;40500;51.084;16.958;2022-08-19T05:39:49;99490.09;;;23.22;65.91
54600;BME280;40500;51.084;16.958;2022-08-19T05:42:18;99485.35;;;23.25;66.02
54600;BME280;40500;51.084;16.958;2022-08-19T05:44:49;99486.42;;;23.30;65.89
54600;BME280;40500;51.084;16.958;2022-08-19T05:47:20;99481.94;;;23.35;65.83
54600;BME280;40500;51.084;16.958;2022-08-19T05:49:48;99481.10;;;23.38;65.74
54600;BME280;40500;51.084;16.958;2022-08-19T05:52:18;99476.92;;;23.43;65.65
54600;BME280;40500;51.084;16.958;2022-08-19T05:54:53;99479.36;;;23.48;65.67
54600;BME280;40500;51.084;16.958;2022-08-19T05:57:24;99480.50;;;23.51;65.55
54600;BME280;40500;51.084;16.958;2022-08-19T05:59:52;99495.31;;;23.56;65.67
54600;BME280;40500;51.084;16.958;2022-08-19T06:02:25;99503.61;;;23.59;65.56
54600;BME280;40500;51.084;16.958;2022-08-19T06:04:54;99505.33;;;23.62;65.46
54600;BME280;40500;51.084;16.958;2022-08-19T06:07:22;99503.20;;;23.66;65.37
54600;BME280;40500;51.084;16.958;2022-08-19T06:09:51;99512.02;;;23.72;65.37
54600;BME280;40500;51.084;16.958;2022-08-19T06:12:29;99515.17;;;23.79;65.19
54600;BME280;40500;51.084;16.958;2022-08-19T06:15:02;99528.14;;;23.84;65.12
54600;BME280;40500;51.084;16.958;2022-08-19T06:17:31;99539.60;;;23.91;64.94
54600;BME280;40500;51.084;16.958;2022-08-19T06:20:04;99547.95;;;23.95;65.10
54600;BME280;40500;51.084;16.958;2022-08-19T06:22:35;99550.53;;;23.99;65.00
54600;BME280;40500;51.084;16.958;2022-08-19T06:25:07;99551.44;;;24.05;64.72
54600;BME280;40500;51.084;16.958;2022-08-19T06:27:36;99553.40;;;24.13;64.69
54600;BME280;40500;51.084;16.958;2022-08-19T06:30:21;99554.64;;;24.20;64.61
54600;BME280;40500;51.084;16.958;2022-08-19T06:32:49;99565.16;;;24.24;64.52
54600;BME280;40500;51.084;16.958;2022-08-19T06:35:19;99572.07;;;24.29;64.28
54600;BME280;40500;51.084;16.958;2022-08-19T06:37:51;99576.66;;;24.34;64.15
54600;BME280;40500;51.084;16.958;2022-08-19T06:40:20;99587.91;;;24.40;64.03
54600;BME280;40500;51.084;16.958;2022-08-19T06:42:49;99588.07;;;24.47;64.09
54600;BME280;40500;51.084;16.958;2022-08-19T06:45:22;99587.16;;;24.52;64.01
54600;BME280;40500;51.084;16.958;2022-08-19T06:48:01;99589.17;;;24.57;63.99
54600;BME280;40500;51.084;16.958;2022-08-19T06:50:30;99592.63;;;24.65;63.70
54600;BME280;40500;51.084;16.958;2022-08-19T06:52:57;99600.48;;;24.71;63.50
54600;BME280;40500;51.084;16.958;2022-08-19T06:55:31;99599.94;;;24.77;63.41
54600;BME280;40500;51.084;16.958;2022-08-19T06:58:02;99606.84;;;24.84;63.36
54600;BME280;40500;51.084;16.958;2022-08-19T07:00:30;99606.14;;;24.89;63.06
54600;BME280;40500;51.084;16.958;2022-08-19T07:03:03;99607.70;;;24.91;62.94
54600;BME280;40500;51.084;16.958;2022-08-19T07:05:40;99605.23;;;24.95;62.55
54600;BME280;40500;51.084;16.958;2022-08-19T07:08:13;99604.68;;;24.99;62.32
54600;BME280;40500;51.084;16.958;2022-08-19T07:10:44;99605.83;;;25.04;62.20
54600;BME280;40500;51.084;16.958;2022-08-19T07:13:12;99604.92;;;25.12;62.14
54600;BME280;40500;51.084;16.958;2022-08-19T07:15:40;99606.04;;;25.20;62.02
54600;BME280;40500;51.084;16.958;2022-08-19T07:18:08;99606.88;;;25.27;61.68
54600;BME280;40500;51.084;16.958;2022-08-19T07:20:39;99612.52;;;25.34;61.41
54600;BME280;40500;51.084;16.958;2022-08-19T07:23:09;99610.23;;;25.39;61.37
54600;BME280;40500;51.084;16.958;2022-08-19T07:25:45;99618.05;;;25.46;61.01
54600;BME280;40500;51.084;16.958;2022-08-19T07:28:20;99619.52;;;25.54;60.76
54600;BME280;40500;51.084;16.958;2022-08-19T07:30:52;99619.89;;;25.61;60.62
54600;BME280;40500;51.084;16.958;2022-08-19T07:33:20;99621.61;;;25.68;60.26
54600;BME280;40500;51.084;16.958;2022-08-19T07:35:48;99632.65;;;25.75;59.86
54600;BME280;40500;51.084;16.958;2022-08-19T07:38:16;99632.10;;;25.80;59.55
54600;BME280;40500;51.084;16.958;2022-08-19T07:40:45;99627.29;;;25.86;59.19
54600;BME280;40500;51.084;16.958;2022-08-19T07:43:13;99628.11;;;25.93;58.88
54600;BME280;40500;51.084;16.958;2022-08-19T07:45:45;99634.05;;;26.00;58.68
54600;BME280;40500;51.084;16.958;2022-08-19T07:48:14;99632.13;;;26.08;58.63
54600;BME280;40500;51.084;16.958;2022-08-19T07:50:42;99633.35;;;26.14;58.38
54600;BME280;40500;51.084;16.958;2022-08-19T07:53:09;99630.04;;;26.20;57.83
54600;BME280;40500;51.084;16.958;2022-08-19T07:55:38;99631.76;;;26.27;57.94
54600;BME280;40500;51.084;16.958;2022-08-19T07:58:12;99632.48;;;26.35;57.87
54600;BME280;40500;51.084;16.958;2022-08-19T08:00:41;99634.55;;;26.41;57.58
54600;BME280;40500;51.084;16.958;2022-08-19T08:03:09;99636.01;;;26.47;56.91
54600;BME280;40500;51.084;16.958;2022-08-19T08:05:36;99639.41;;;26.53;56.68
54600;BME280;40500;51.084;16.958;2022-08-19T08:08:23;99639.78;;;26.58;56.47
54600;BME280;40500;51.084;16.958;2022-08-19T08:11:16;99646.48;;;26.67;56.26
54600;BME280;40500;51.084;16.958;2022-08-19T08:13:47;99640.95;;;26.71;56.15
54600;BME280;40500;51.084;16.958;2022-08-19T08:16:34;99644.54;;;26.75;56.00
54600;BME280;40500;51.084;16.958;2022-08-19T08:19:07;99645.73;;;26.77;55.95
54600;BME280;40500;51.084;16.958;2022-08-19T08:21:52;99642.65;;;26.83;55.40
54600;BME280;40500;51.084;16.958;2022-08-19T08:24:20;99640.13;;;26.89;55.12
54600;BME280;40500;51.084;16.958;2022-08-19T08:26:48;99632.98;;;26.96;54.90
54600;BME280;40500;51.084;16.958;2022-08-19T08:29:19;99625.70;;;27.04;54.84
54600;BME280;40500;51.084;16.958;2022-08-19T08:31:47;99625.29;;;27.12;54.88
54600;BME280;40500;51.084;16.958;2022-08-19T08:34:25;99629.48;;;27.19;54.28
54600;BME280;40500;51.084;16.958;2022-08-19T08:36:52;99635.13;;;27.24;54.19
54600;BME280;40500;51.084;16.958;2022-08-19T08:39:21;99636.48;;;27.32;54.04
54600;BME280;40500;51.084;16.958;2022-08-19T08:41:54;99639.98;;;27.44;53.63
54600;BME280;40500;51.084;16.958;2022-08-19T08:44:27;99639.02;;;27.57;53.42
54600;BME280;40500;51.084;16.958;2022-08-19T08:46:58;99643.09;;;27.67;52.66
54600;BME280;40500;51.084;16.958;2022-08-19T08:49:41;99649.06;;;27.78;52.34
54600;BME280;40500;51.084;16.958;2022-08-19T08:52:13;99646.80;;;27.88;52.10
54600;BME280;40500;51.084;16.958;2022-08-19T08:54:46;99642.16;;;27.95;52.11
54600;BME280;40500;51.084;16.958;2022-08-19T08:57:27;99637.48;;;28.00;52.05
54600;BME280;40500;51.084;16.958;2022-08-19T09:00:19;99634.45;;;28.05;51.97
54600;BME280;40500;51.084;16.958;2022-08-19T09:02:47;99628.83;;;28.11;51.62
54600;BME280;40500;51.084;16.958;2022-08-19T09:05:18;99618.29;;;28.17;51.73
54600;BME280;40500;51.084;16.958;2022-08-19T09:08:00;99605.46;;;28.21;51.62
54600;BME280;40500;51.084;16.958;2022-08-19T09:10:36;99599.35;;;28.21;51.51
54600;BME280;40500;51.084;16.958;2022-08-19T09:13:20;99609.41;;;28.21;51.70
54600;BME280;40500;51.084;16.958;2022-08-19T09:15:56;99613.35;;;28.24;51.54
54600;BME280;40500;51.084;16.958;2022-08-19T09:18:26;99613.39;;;28.26;51.34
54600;BME280;40500;51.084;16.958;2022-08-19T09:21:05;99613.65;;;28.29;51.33
54600;BME280;40500;51.084;16.958;2022-08-19T09:23:34;99621.60;;;28.32;51.42
54600;BME280;40500;51.084;16.958;2022-08-19T09:26:08;99620.65;;;28.36;51.16
54600;BME280;40500;51.084;16.958;2022-08-19T09:28:37;99621.13;;;28.42;51.02
54600;BME280;40500;51.084;16.958;2022-08-19T09:31:06;99616.41;;;28.48;50.52
54600;BME280;40500;51.084;16.958;2022-08-19T09:33:33;99618.02;;;28.52;49.96
54600;BME280;40500;51.084;16.958;2022-08-19T09:36:07;99616.55;;;28.53;49.94
54600;BME280;40500;51.084;16.958;2022-08-19T09:38:36;99617.64;;;28.57;49.88
54600;BME280;40500;51.084;16.958;2022-08-19T09:41:13;99619.60;;;28.64;49.68
54600;BME280;40500;51.084;16.958;2022-08-19T09:43:43;99617.25;;;28.69;49.60
54600;BME280;40500;51.084;16.958;2022-08-19T09:46:15;99620.88;;;28.74;49.41
54600;BME280;40500;51.084;16.958;2022-08-19T09:48:45;99613.91;;;28.79;49.29
54600;BME280;40500;51.084;16.958;2022-08-19T09:51:18;99614.05;;;28.88;48.91
54600;BME280;40500;51.084;16.958;2022-08-19T09:53:48;99615.97;;;28.95;48.59
54600;BME280;40500;51.084;16.958;2022-08-19T09:56:20;99615.71;;;28.96;48.67
54600;BME280;40500;51.084;16.958;2022-08-19T09:58:49;99617.29;;;28.95;48.65
54600;BME280;40500;51.084;16.958;2022-08-19T10:01:19;99620.03;;;28.96;48.46
54600;BME280;40500;51.084;16.958;2022-08-19T10:03:49;99623.95;;;29.04;48.25
54600;BME280;40500;51.084;16.958;2022-08-19T10:06:18;99624.08;;;29.09;47.92
54600;BME280;40500;51.084;16.958;2022-08-19T10:09:07;99628.70;;;29.16;47.68
54600;BME280;40500;51.084;16.958;2022-08-19T10:11:40;99628.75;;;29.22;47.50
54600;BME280;40500;51.084;16.958;2022-08-19T10:14:19;99629.91;;;29.24;47.22
54600;BME280;40500;51.084;16.958;2022-08-19T10:16:49;99630.11;;;29.22;46.80
54600;BME280;40500;51.084;16.958;2022-08-19T10:19:18;99627.73;;;29.23;46.84
54600;BME280;40500;51.084;16.958;2022-08-19T10:21:53;99630.46;;;29.26;46.93
54600;BME280;40500;51.084;16.958;2022-08-19T10:24:27;99632.19;;;29.30;46.74
54600;BME280;40500;51.084;16.958;2022-08-19T10:26:55;99630.91;;;29.40;46.13
54600;BME280;40500;51.084;16.958;2022-08-19T10:29:26;99618.34;;;29.53;45.87
54600;BME280;40500;51.084;16.958;2022-08-19T10:32:01;99616.13;;;29.60;45.44
54600;BME280;40500;51.084;16.958;2022-08-19T10:34:31;99619.38;;;29.63;45.14
54600;BME280;40500;51.084;16.958;2022-08-19T10:36:59;99613.97;;;29.66;44.85
54600;BME280;40500;51.084;16.958;2022-08-19T10:39:29;99612.05;;;29.68;44.66
54600;BME280;40500;51.084;16.958;2022-08-19T10:42:09;99607.74;;;29.66;44.64
54600;BME280;40500;51.084;16.958;2022-08-19T10:44:38;99611.33;;;29.66;44.79
54600;BME280;40500;51.084;16.958;2022-08-19T10:47:06;99608.20;;;29.68;44.62
54600;BME280;40500;51.084;16.958;2022-08-19T10:49:52;99608.81;;;29.78;44.78
54600;BME280;40500;51.084;16.958;2022-08-19T10:52:39;99612.84;;;29.87;45.13
54600;BME280;40500;51.084;16.958;2022-08-19T10:55:19;99618.56;;;29.91;44.98
54600;BME280;40500;51.084;16.958;2022-08-19T10:58:10;99618.64;;;29.93;44.57
54600;BME280;40500;51.084;16.958;2022-08-19T11:00:38;99622.26;;;29.93;44.31
54600;BME280;40500;51.084;16.958;2022-08-19T11:03:06;99619.09;;;29.89;44.30
54600;BME280;40500;51.084;16.958;2022-08-19T11:05:36;99620.89;;;29.91;44.34
54600;BME280;40500;51.084;16.958;2022-08-19T11:08:07;99617.38;;;29.93;44.26
54600;BME280;40500;51.084;16.958;2022-08-19T11:10:51;99606.92;;;29.98;44.28
54600;BME280;40500;51.084;16.958;2022-08-19T11:13:26;99605.44;;;30.09;44.42
54600;BME280;40500;51.084;16.958;2022-08-19T11:15:59;99614.54;;;30.14;44.36
54600;BME280;40500;51.084;16.958;2022-08-19T11:18:34;99615.25;;;30.11;44.14
54600;BME280;40500;51.084;16.958;2022-08-19T11:21:07;99619.50;;;30.13;43.78
54600;BME280;40500;51.084;16.958;2022-08-19T11:23:35;99618.31;;;30.16;43.58
54600;BME280;40500;51.084;16.958;2022-08-19T11:26:04;99622.09;;;30.23;43.95
54600;BME280;40500;51.084;16.958;2022-08-19T11:28:31;99619.45;;;30.32;43.72
54600;BME280;40500;51.084;16.958;2022-08-19T11:31:00;99615.20;;;30.43;42.78
54600;BME280;40500;51.084;16.958;2022-08-19T11:33:28;99620.98;;;30.52;42.33
54600;BME280;40500;51.084;16.958;2022-08-19T11:35:57;99614.33;;;30.59;41.89
54600;BME280;40500;51.084;16.958;2022-08-19T11:38:26;99617.11;;;30.67;41.48
54600;BME280;40500;51.084;16.958;2022-08-19T11:40:59;99622.48;;;30.71;40.75
54600;BME280;40500;51.084;16.958;2022-08-19T11:43:27;99626.66;;;30.69;40.56
54600;BME280;40500;51.084;16.958;2022-08-19T11:45:55;99624.09;;;30.70;40.45
54600;BME280;40500;51.084;16.958;2022-08-19T11:48:24;99628.55;;;30.70;40.32
54600;BME280;40500;51.084;16.958;2022-08-19T11:50:53;99625.02;;;30.76;39.90
54600;BME280;40500;51.084;16.958;2022-08-19T11:53:24;99625.90;;;30.86;39.50
54600;BME280;40500;51.084;16.958;2022-08-19T11:55:53;99625.95;;;30.97;39.32
54600;BME280;40500;51.084;16.958;2022-08-19T11:58:23;99623.66;;;31.02;38.86
54600;BME280;40500;51.084;16.958;2022-08-19T12:00:51;99617.86;;;31.04;38.94
54600;BME280;40500;51.084;16.958;2022-08-19T12:03:19;99619.65;;;31.04;38.41
54600;BME280;40500;51.084;16.958;2022-08-19T12:05:47;99627.14;;;31.07;38.10
54600;BME280;40500;51.084;16.958;2022-08-19T12:08:15;99621.56;;;31.09;38.83
54600;BME280;40500;51.084;16.958;2022-08-19T12:10:43;99621.68;;;31.13;39.53
54600;BME280;40500;51.084;16.958;2022-08-19T12:13:12;99620.02;;;31.17;40.35
54600;BME280;40500;51.084;16.958;2022-08-19T12:15:46;99617.89;;;31.24;40.53
54600;BME280;40500;51.084;16.958;2022-08-19T12:18:14;99618.14;;;31.28;40.90
54600;BME280;40500;51.084;16.958;2022-08-19T12:20:43;99620.34;;;31.34;41.25
54600;BME280;40500;51.084;16.958;2022-08-19T12:23:13;99616.95;;;31.37;40.76
54600;BME280;40500;51.084;16.958;2022-08-19T12:25:46;99614.41;;;31.43;40.94
54600;BME280;40500;51.084;16.958;2022-08-19T12:28:17;99616.42;;;31.51;40.90
54600;BME280;40500;51.084;16.958;2022-08-19T12:30:45;99617.67;;;31.53;40.47
54600;BME280;40500;51.084;16.958;2022-08-19T12:33:12;99618.98;;;31.64;40.88
54600;BME280;40500;51.084;16.958;2022-08-19T12:35:41;99621.27;;;31.75;41.04
54600;BME280;40500;51.084;16.958;2022-08-19T12:38:13;99619.78;;;31.89;40.40
54600;BME280;40500;51.084;16.958;2022-08-19T12:40:41;99617.63;;;32.06;40.12
54600;BME280;40500;51.084;16.958;2022-08-19T12:43:12;99613.29;;;32.21;40.05
54600;BME280;40500;51.084;16.958;2022-08-19T12:45:42;99616.67;;;32.40;40.36
54600;BME280;40500;51.084;16.958;2022-08-19T12:48:14;99615.27;;;32.54;39.77
54600;BME280;40500;51.084;16.958;2022-08-19T12:51:07;99616.71;;;32.68;39.31
54600;BME280;40500;51.084;16.958;2022-08-19T12:53:35;99615.73;;;32.79;39.05
54600;BME280;40500;51.084;16.958;2022-08-19T12:56:06;99614.70;;;32.86;38.80
54600;BME280;40500;51.084;16.958;2022-08-19T12:58:41;99617.90;;;32.97;38.24
54600;BME280;40500;51.084;16.958;2022-08-19T13:01:16;99615.30;;;33.09;38.61
54600;BME280;40500;51.084;16.958;2022-08-19T13:03:49;99617.90;;;33.18;38.53
54600;BME280;40500;51.084;16.958;2022-08-19T13:06:17;99613.89;;;33.30;37.56
54600;BME280;40500;51.084;16.958;2022-08-19T13:08:47;99614.98;;;33.43;37.11
54600;BME280;40500;51.084;16.958;2022-08-19T13:11:17;99609.60;;;33.54;36.47
54600;BME280;40500;51.084;16.958;2022-08-19T13:13:47;99608.63;;;33.62;36.01
54600;BME280;40500;51.084;16.958;2022-08-19T13:16:16;99604.58;;;33.68;35.81